Forside
METAR-TAF:

METAR-TAF

Lufthavne :

Kumamoto, Japan

Breddekreds: 32-50N, længdekreds: 130-51E, højde: 193 m

Aktuelle vejr

Denne rapport blev lavet for 6 timer og 34 minutter siden, kl. 12:00 UTC
Vind 1 kt fra varierende retninger
Temperatur 13°C
Fugtighed 82%
Tryk 1019 hPa
Sigt 10 km eller mere
Nogle få skyer i en højde af 4500 ft

METAR: RJFT 031200Z VRB01KT 9999 FEW045 13/10 Q1019

Tid: 03:34 (18:34 UTC)

Vejrudsigter

Denne rapport blev lavet for 1 time og 28 minutter siden, kl. 17:06 UTC
Foreløbig gælder fra 03 på 18 UTC til 05 på 00 UTC
Vind 5 kt fra østnordøst
Sigt 10 km eller mere
Nogle få skyer i en højde af 4000 ft
ændring
fra 03 på 23 UTC til 04 på 01 UTC
Vind 7 kt fra vestsydvest
ændring
fra 04 på 12 UTC til 04 på 15 UTC
Vind 5 kt fra østnordøst
ændring
fra 04 på 21 UTC til 05 på 00 UTC
Vind 4 kt fra nordnordvest

TAF: RJFT 031706Z 0318/0500 06005KT 9999 FEW040 BECMG 0323/0401 25007KT BECMG 0412/0415 06005KT BECMG 0421/0500 33004KT

Vejrobservationer og prognoser fra mere end 4000 lufthavne (METAR og TAF).

De gule og røde prikker repræsenterer de meteorologiske stationer.

Flyt musen over at se navnet på stationen.

Så klik over at se vejr observationer og prognoser.

At skifte det kort: Klik på de grønne knapper med et sort kors for at zoome ind; på den grønne knap med en bindestreg for at zoome ud; eller på de grønne pile for tilstødende kort.


METAR-TAF: